sensor_id;sensor_type;location;lat;lon;timestamp;pressure;altitude;pressure_sealevel;temperature;humidity
5484;BME280;2764;48.794;8.326;2022-11-15T00:00:11;99623.94;;;8.34;100.00
5484;BME280;2764;48.794;8.326;2022-11-15T00:01:16;99622.28;;;8.32;100.00
5484;BME280;2764;48.794;8.326;2022-11-15T00:02:19;99619.69;;;8.32;100.00
5484;BME280;2764;48.794;8.326;2022-11-15T00:03:22;99625.75;;;8.32;100.00
5484;BME280;2764;48.794;8.326;2022-11-15T00:04:24;99616.19;;;8.33;100.00
5484;BME280;2764;48.794;8.326;2022-11-15T00:05:26;99617.16;;;8.30;100.00
5484;BME280;2764;48.794;8.326;2022-11-15T00:06:28;99610.34;;;8.25;100.00
5484;BME280;2764;48.794;8.326;2022-11-15T00:07:30;99618.91;;;8.30;100.00
5484;BME280;2764;48.794;8.326;2022-11-15T00:08:51;99619.78;;;8.29;100.00
5484;BME280;2764;48.794;8.326;2022-11-15T00:09:53;99616.34;;;8.28;100.00
5484;BME280;2764;48.794;8.326;2022-11-15T00:10:56;99622.47;;;8.27;100.00
5484;BME280;2764;48.794;8.326;2022-11-15T00:11:58;99610.34;;;8.26;100.00
5484;BME280;2764;48.794;8.326;2022-11-15T00:12:59;99615.44;;;8.29;100.00
5484;BME280;2764;48.794;8.326;2022-11-15T00:14:01;99611.19;;;8.27;100.00
5484;BME280;2764;48.794;8.326;2022-11-15T00:15:06;99611.28;;;8.24;100.00
5484;BME280;2764;48.794;8.326;2022-11-15T00:16:08;99618.25;;;8.23;100.00
5484;BME280;2764;48.794;8.326;2022-11-15T00:17:10;99614.78;;;8.23;100.00
5484;BME280;2764;48.794;8.326;2022-11-15T00:18:13;99613.09;;;8.22;100.00
5484;BME280;2764;48.794;8.326;2022-11-15T00:19:15;99614.06;;;8.19;100.00
5484;BME280;2764;48.794;8.326;2022-11-15T00:20:17;99610.63;;;8.17;100.00
5484;BME280;2764;48.794;8.326;2022-11-15T00:21:19;99611.56;;;8.16;100.00
5484;BME280;2764;48.794;8.326;2022-11-15T00:22:21;99615.91;;;8.16;100.00
5484;BME280;2764;48.794;8.326;2022-11-15T00:23:23;99612.44;;;8.15;100.00
5484;BME280;2764;48.794;8.326;2022-11-15T00:24:24;99614.25;;;8.13;100.00
5484;BME280;2764;48.794;8.326;2022-11-15T00:25:26;99608.19;;;8.13;100.00
5484;BME280;2764;48.794;8.326;2022-11-15T00:26:28;99609.91;;;8.14;100.00
5484;BME280;2764;48.794;8.326;2022-11-15T00:27:30;99607.19;;;8.17;100.00
5484;BME280;2764;48.794;8.326;2022-11-15T00:28:31;99607.22;;;8.15;100.00
5484;BME280;2764;48.794;8.326;2022-11-15T00:29:33;99609.81;;;8.17;100.00
5484;BME280;2764;48.794;8.326;2022-11-15T00:30:35;99612.44;;;8.15;100.00
5484;BME280;2764;48.794;8.326;2022-11-15T00:31:37;99597.09;;;8.08;100.00
5484;BME280;2764;48.794;8.326;2022-11-15T00:32:39;99605.56;;;8.14;100.00
5484;BME280;2764;48.794;8.326;2022-11-15T00:33:43;99609.00;;;8.15;100.00
5484;BME280;2764;48.794;8.326;2022-11-15T00:34:44;99606.41;;;8.15;100.00
5484;BME280;2764;48.794;8.326;2022-11-15T00:35:46;99605.41;;;8.17;100.00
5484;BME280;2764;48.794;8.326;2022-11-15T00:36:48;99607.13;;;8.18;100.00
5484;BME280;2764;48.794;8.326;2022-11-15T00:37:49;99570.41;;;8.01;100.00
5484;BME280;2764;48.794;8.326;2022-11-15T00:38:53;99600.22;;;8.17;100.00
5484;BME280;2764;48.794;8.326;2022-11-15T00:39:55;99599.31;;;8.18;100.00
5484;BME280;2764;48.794;8.326;2022-11-15T00:40:56;99601.06;;;8.18;100.00
5484;BME280;2764;48.794;8.326;2022-11-15T00:41:58;99599.31;;;8.18;100.00
5484;BME280;2764;48.794;8.326;2022-11-15T00:43:00;99598.47;;;8.18;100.00
5484;BME280;2764;48.794;8.326;2022-11-15T00:44:01;99585.59;;;8.13;100.00
5484;BME280;2764;48.794;8.326;2022-11-15T00:45:04;99591.28;;;8.24;100.00
5484;BME280;2764;48.794;8.326;2022-11-15T00:46:05;99591.25;;;8.26;100.00
5484;BME280;2764;48.794;8.326;2022-11-15T00:47:07;99586.91;;;8.25;100.00
5484;BME280;2764;48.794;8.326;2022-11-15T00:48:09;99592.97;;;8.25;100.00
5484;BME280;2764;48.794;8.326;2022-11-15T00:49:11;99587.69;;;8.28;100.00
5484;BME280;2764;48.794;8.326;2022-11-15T00:50:13;99585.09;;;8.28;100.00
5484;BME280;2764;48.794;8.326;2022-11-15T00:51:16;99582.53;;;8.27;100.00
5484;BME280;2764;48.794;8.326;2022-11-15T00:52:17;99576.41;;;8.28;100.00
5484;BME280;2764;48.794;8.326;2022-11-15T00:53:19;99578.06;;;8.30;100.00
5484;BME280;2764;48.794;8.326;2022-11-15T00:54:21;99575.47;;;8.30;100.00
5484;BME280;2764;48.794;8.326;2022-11-15T00:55:23;99575.47;;;8.30;100.00
5484;BME280;2764;48.794;8.326;2022-11-15T00:56:24;99548.19;;;8.16;100.00
5484;BME280;2764;48.794;8.326;2022-11-15T00:57:26;99575.47;;;8.30;100.00
5484;BME280;2764;48.794;8.326;2022-11-15T00:58:28;99573.75;;;8.29;100.00
5484;BME280;2764;48.794;8.326;2022-11-15T00:59:30;99570.44;;;8.24;100.00
5484;BME280;2764;48.794;8.326;2022-11-15T01:00:31;99570.25;;;8.30;100.00
5484;BME280;2764;48.794;8.326;2022-11-15T01:01:33;99569.31;;;8.31;100.00
5484;BME280;2764;48.794;8.326;2022-11-15T01:02:35;99559.94;;;8.27;100.00
5484;BME280;2764;48.794;8.326;2022-11-15T01:03:38;99571.91;;;8.33;100.00
5484;BME280;2764;48.794;8.326;2022-11-15T01:04:40;99569.22;;;8.34;100.00
5484;BME280;2764;48.794;8.326;2022-11-15T01:05:41;99577.09;;;8.33;100.00
5484;BME280;2764;48.794;8.326;2022-11-15T01:06:43;99566.63;;;8.34;100.00
5484;BME280;2764;48.794;8.326;2022-11-15T01:07:45;99554.47;;;8.33;100.00
5484;BME280;2764;48.794;8.326;2022-11-15T01:08:47;99555.31;;;8.35;100.00
5484;BME280;2764;48.794;8.326;2022-11-15T01:09:48;99564.81;;;8.36;100.00
5484;BME280;2764;48.794;8.326;2022-11-15T01:10:50;99563.91;;;8.37;100.00
5484;BME280;2764;48.794;8.326;2022-11-15T01:11:52;99556.09;;;8.37;100.00
5484;BME280;2764;48.794;8.326;2022-11-15T01:12:54;99557.09;;;8.33;100.00
5484;BME280;2764;48.794;8.326;2022-11-15T01:13:55;99556.09;;;8.37;100.00
5484;BME280;2764;48.794;8.326;2022-11-15T01:14:57;99554.34;;;8.38;100.00
5484;BME280;2764;48.794;8.326;2022-11-15T01:16:06;99556.19;;;8.34;100.00
5484;BME280;2764;48.794;8.326;2022-11-15T01:17:08;99559.50;;;8.39;100.00
5484;BME280;2764;48.794;8.326;2022-11-15T01:18:10;99563.72;;;8.42;100.00
5484;BME280;2764;48.794;8.326;2022-11-15T01:19:12;99558.44;;;8.43;100.00
5484;BME280;2764;48.794;8.326;2022-11-15T01:20:13;99559.38;;;8.42;100.00
5484;BME280;2764;48.794;8.326;2022-11-15T01:21:18;99561.06;;;8.43;100.00
5484;BME280;2764;48.794;8.326;2022-11-15T01:22:20;99562.78;;;8.44;100.00
5484;BME280;2764;48.794;8.326;2022-11-15T01:23:21;99558.34;;;8.46;100.00
5484;BME280;2764;48.794;8.326;2022-11-15T01:24:23;99573.06;;;8.47;100.00
5484;BME280;2764;48.794;8.326;2022-11-15T01:25:25;99561.66;;;8.50;100.00
5484;BME280;2764;48.794;8.326;2022-11-15T01:26:27;99558.16;;;8.51;100.00
5484;BME280;2764;48.794;8.326;2022-11-15T01:27:28;99556.34;;;8.53;100.00
5484;BME280;2764;48.794;8.326;2022-11-15T01:28:32;99558.06;;;8.54;100.00
5484;BME280;2764;48.794;8.326;2022-11-15T01:29:34;99564.06;;;8.56;100.00
5484;BME280;2764;48.794;8.326;2022-11-15T01:30:35;99569.13;;;8.59;100.00
5484;BME280;2764;48.794;8.326;2022-11-15T01:31:37;99562.19;;;8.60;100.00
5484;BME280;2764;48.794;8.326;2022-11-15T01:32:39;99566.31;;;8.65;100.00
5484;BME280;2764;48.794;8.326;2022-11-15T01:33:41;99553.22;;;8.67;100.00
5484;BME280;2764;48.794;8.326;2022-11-15T01:34:43;99558.31;;;8.70;100.00
5484;BME280;2764;48.794;8.326;2022-11-15T01:35:44;99560.94;;;8.70;100.00
5484;BME280;2764;48.794;8.326;2022-11-15T01:36:46;99552.19;;;8.71;100.00
5484;BME280;2764;48.794;8.326;2022-11-15T01:37:48;99551.09;;;8.76;100.00
5484;BME280;2764;48.794;8.326;2022-11-15T01:38:54;99553.63;;;8.78;100.00
5484;BME280;2764;48.794;8.326;2022-11-15T01:39:56;99543.94;;;8.81;100.00
5484;BME280;2764;48.794;8.326;2022-11-15T01:40:58;99544.00;;;8.80;100.00
5484;BME280;2764;48.794;8.326;2022-11-15T01:42:00;99547.38;;;8.82;100.00
5484;BME280;2764;48.794;8.326;2022-11-15T01:43:22;99545.59;;;8.84;100.00
5484;BME280;2764;48.794;8.326;2022-11-15T01:44:40;99541.09;;;8.87;100.00
5484;BME280;2764;48.794;8.326;2022-11-15T01:45:43;99541.09;;;8.87;100.00
5484;BME280;2764;48.794;8.326;2022-11-15T01:46:47;99535.28;;;8.81;100.00
5484;BME280;2764;48.794;8.326;2022-11-15T01:47:52;99541.03;;;8.89;100.00
5484;BME280;2764;48.794;8.326;2022-11-15T01:48:58;99540.22;;;8.87;100.00
5484;BME280;2764;48.794;8.326;2022-11-15T01:50:10;99539.34;;;8.88;100.00
5484;BME280;2764;48.794;8.326;2022-11-15T01:51:15;99537.59;;;8.88;100.00
5484;BME280;2764;48.794;8.326;2022-11-15T01:52:20;99532.38;;;8.88;100.00
5484;BME280;2764;48.794;8.326;2022-11-15T01:53:23;99533.16;;;8.90;100.00
5484;BME280;2764;48.794;8.326;2022-11-15T01:54:26;99527.16;;;8.88;100.00
5484;BME280;2764;48.794;8.326;2022-11-15T01:55:28;99528.84;;;8.89;100.00
5484;BME280;2764;48.794;8.326;2022-11-15T01:56:33;99531.50;;;8.88;100.00
5484;BME280;2764;48.794;8.326;2022-11-15T01:57:38;99523.69;;;8.88;100.00
5484;BME280;2764;48.794;8.326;2022-11-15T01:58:41;99518.47;;;8.88;100.00
5484;BME280;2764;48.794;8.326;2022-11-15T01:59:45;99520.31;;;8.86;100.00
5484;BME280;2764;48.794;8.326;2022-11-15T02:00:48;99525.56;;;8.84;100.00
5484;BME280;2764;48.794;8.326;2022-11-15T02:01:51;99523.81;;;8.85;100.00
5484;BME280;2764;48.794;8.326;2022-11-15T02:02:53;99521.19;;;8.85;100.00
5484;BME280;2764;48.794;8.326;2022-11-15T02:04:05;99521.94;;;8.88;100.00
5484;BME280;2764;48.794;8.326;2022-11-15T02:05:09;99524.56;;;8.88;100.00
5484;BME280;2764;48.794;8.326;2022-11-15T02:06:11;99520.22;;;8.87;100.00
5484;BME280;2764;48.794;8.326;2022-11-15T02:07:18;99524.59;;;8.87;100.00
5484;BME280;2764;48.794;8.326;2022-11-15T02:08:21;99515.97;;;8.85;100.00
5484;BME280;2764;48.794;8.326;2022-11-15T02:09:23;99521.19;;;8.85;100.00
5484;BME280;2764;48.794;8.326;2022-11-15T02:10:25;99526.47;;;8.83;100.00
5484;BME280;2764;48.794;8.326;2022-11-15T02:11:29;99522.25;;;8.81;100.00
5484;BME280;2764;48.794;8.326;2022-11-15T02:12:31;99518.84;;;8.79;100.00
5484;BME280;2764;48.794;8.326;2022-11-15T02:13:33;99519.75;;;8.78;100.00
5484;BME280;2764;48.794;8.326;2022-11-15T02:14:36;99520.66;;;8.77;100.00
5484;BME280;2764;48.794;8.326;2022-11-15T02:15:47;99515.31;;;8.80;100.00
5484;BME280;2764;48.794;8.326;2022-11-15T02:16:59;99513.44;;;8.83;100.00
5484;BME280;2764;48.794;8.326;2022-11-15T02:18:16;99503.88;;;8.84;100.00
5484;BME280;2764;48.794;8.326;2022-11-15T02:21:11;99500.34;;;8.85;100.00
5484;BME280;2764;48.794;8.326;2022-11-15T02:28:31;99477.13;;;8.79;100.00
5484;BME280;2764;48.794;8.326;2022-11-15T02:32:44;99481.56;;;8.77;100.00
5484;BME280;2764;48.794;8.326;2022-11-15T02:33:54;99477.13;;;8.79;100.00
5484;BME280;2764;48.794;8.326;2022-11-15T02:36:14;99472.09;;;8.74;100.00
5484;BME280;2764;48.794;8.326;2022-11-15T02:41:20;99485.81;;;8.79;100.00
5484;BME280;2764;48.794;8.326;2022-11-15T02:42:27;99476.09;;;8.83;100.00
5484;BME280;2764;48.794;8.326;2022-11-15T02:44:12;99475.13;;;8.85;100.00
5484;BME280;2764;48.794;8.326;2022-11-15T02:45:20;99482.03;;;8.86;100.00
5484;BME280;2764;48.794;8.326;2022-11-15T02:46:35;99474.16;;;8.88;100.00
5484;BME280;2764;48.794;8.326;2022-11-15T02:47:58;99469.63;;;8.91;100.00
5484;BME280;2764;48.794;8.326;2022-11-15T02:49:01;99471.34;;;8.92;100.00
5484;BME280;2764;48.794;8.326;2022-11-15T02:50:09;99478.19;;;8.95;100.00
5484;BME280;2764;48.794;8.326;2022-11-15T02:51:11;99476.38;;;8.97;100.00
5484;BME280;2764;48.794;8.326;2022-11-15T02:52:19;99475.31;;;9.01;100.00
5484;BME280;2764;48.794;8.326;2022-11-15T02:53:25;99455.44;;;8.98;100.00
5484;BME280;2764;48.794;8.326;2022-11-15T02:54:32;99466.06;;;9.14;100.00
5484;BME280;2764;48.794;8.326;2022-11-15T02:55:37;99474.03;;;9.31;100.00
5484;BME280;2764;48.794;8.326;2022-11-15T02:56:43;99472.22;;;9.33;100.00
5484;BME280;2764;48.794;8.326;2022-11-15T02:57:52;99465.16;;;9.35;100.00
5484;BME280;2764;48.794;8.326;2022-11-15T02:59:11;99457.50;;;9.32;100.00
5484;BME280;2764;48.794;8.326;2022-11-15T03:00:17;99471.91;;;9.41;100.00
5484;BME280;2764;48.794;8.326;2022-11-15T03:05:08;99465.41;;;9.49;100.00
5484;BME280;2764;48.794;8.326;2022-11-15T03:11:19;99447.19;;;9.68;100.00
5484;BME280;2764;48.794;8.326;2022-11-15T03:13:52;99445.44;;;9.68;100.00
5484;BME280;2764;48.794;8.326;2022-11-15T03:15:00;99446.13;;;9.72;100.00
5484;BME280;2764;48.794;8.326;2022-11-15T03:16:20;99451.44;;;9.70;100.00
5484;BME280;2764;48.794;8.326;2022-11-15T03:17:34;99451.56;;;9.67;100.00
5484;BME280;2764;48.794;8.326;2022-11-15T03:18:41;99447.38;;;9.63;100.00
5484;BME280;2764;48.794;8.326;2022-11-15T03:19:50;99447.59;;;9.59;100.00
5484;BME280;2764;48.794;8.326;2022-11-15T03:20:55;99445.19;;;9.54;100.00
5484;BME280;2764;48.794;8.326;2022-11-15T03:22:00;99441.06;;;9.49;100.00
5484;BME280;2764;48.794;8.326;2022-11-15T03:23:06;99445.72;;;9.42;100.00
5484;BME280;2764;48.794;8.326;2022-11-15T03:24:10;99444.28;;;9.35;100.00
5484;BME280;2764;48.794;8.326;2022-11-15T03:25:19;99442.84;;;9.28;100.00
5484;BME280;2764;48.794;8.326;2022-11-15T03:26:23;99445.81;;;9.21;100.00
5484;BME280;2764;48.794;8.326;2022-11-15T03:27:31;99443.41;;;9.16;100.00
5484;BME280;2764;48.794;8.326;2022-11-15T03:29:47;99439.41;;;9.07;100.00
5484;BME280;2764;48.794;8.326;2022-11-15T03:30:53;99447.19;;;9.09;100.00
5484;BME280;2764;48.794;8.326;2022-11-15T03:32:03;99443.78;;;9.07;100.00
5484;BME280;2764;48.794;8.326;2022-11-15T03:33:07;99432.94;;;8.96;100.00
5484;BME280;2764;48.794;8.326;2022-11-15T03:34:36;99439.78;;;8.98;100.00
5484;BME280;2764;48.794;8.326;2022-11-15T03:35:39;99437.53;;;8.91;100.00
5484;BME280;2764;48.794;8.326;2022-11-15T03:36:43;99440.25;;;8.88;100.00
5484;BME280;2764;48.794;8.326;2022-11-15T03:37:56;99438.81;;;8.81;100.00
5484;BME280;2764;48.794;8.326;2022-11-15T03:39:02;99435.59;;;8.74;100.00
5484;BME280;2764;48.794;8.326;2022-11-15T03:40:06;99441.78;;;8.72;100.00
5484;BME280;2764;48.794;8.326;2022-11-15T03:41:15;99437.66;;;8.66;100.00
5484;BME280;2764;48.794;8.326;2022-11-15T03:42:34;99442.16;;;8.63;100.00
5484;BME280;2764;48.794;8.326;2022-11-15T03:44:30;99431.06;;;8.58;100.00
5484;BME280;2764;48.794;8.326;2022-11-15T03:45:22;99433.78;;;8.55;100.00
5484;BME280;2764;48.794;8.326;2022-11-15T03:46:28;99439.25;;;8.48;100.00
5484;BME280;2764;48.794;8.326;2022-11-15T03:47:40;99444.38;;;8.52;100.00
5484;BME280;2764;48.794;8.326;2022-11-15T03:48:48;99445.81;;;8.59;100.00
5484;BME280;2764;48.794;8.326;2022-11-15T03:49:53;99436.94;;;8.63;100.00
5484;BME280;2764;48.794;8.326;2022-11-15T03:50:58;99447.22;;;8.66;100.00
5484;BME280;2764;48.794;8.326;2022-11-15T03:52:03;99443.81;;;8.65;100.00
5484;BME280;2764;48.794;8.326;2022-11-15T03:53:05;99444.63;;;8.66;100.00
5484;BME280;2764;48.794;8.326;2022-11-15T03:54:07;99450.69;;;8.66;100.00
5484;BME280;2764;48.794;8.326;2022-11-15T03:55:13;99449.84;;;8.66;100.00
5484;BME280;2764;48.794;8.326;2022-11-15T03:56:16;99447.22;;;8.66;100.00
5484;BME280;2764;48.794;8.326;2022-11-15T03:57:18;99450.56;;;8.69;100.00
5484;BME280;2764;48.794;8.326;2022-11-15T03:58:19;99452.34;;;8.69;100.00
5484;BME280;2764;48.794;8.326;2022-11-15T03:59:22;99448.03;;;8.68;100.00
5484;BME280;2764;48.794;8.326;2022-11-15T04:00:24;99455.78;;;8.69;100.00
5484;BME280;2764;48.794;8.326;2022-11-15T04:01:25;99452.44;;;8.66;100.00
5484;BME280;2764;48.794;8.326;2022-11-15T04:02:28;99450.66;;;8.68;100.00
5484;BME280;2764;48.794;8.326;2022-11-15T04:03:30;99449.72;;;8.69;100.00
5484;BME280;2764;48.794;8.326;2022-11-15T04:04:32;99453.19;;;8.69;100.00
5484;BME280;2764;48.794;8.326;2022-11-15T04:05:34;99450.66;;;8.68;100.00
5484;BME280;2764;48.794;8.326;2022-11-15T04:06:35;99446.34;;;8.67;100.00
5484;BME280;2764;48.794;8.326;2022-11-15T04:07:37;99447.22;;;8.66;100.00
5484;BME280;2764;48.794;8.326;2022-11-15T04:08:39;99451.66;;;8.64;100.00
5484;BME280;2764;48.794;8.326;2022-11-15T04:09:41;99458.50;;;8.66;100.00
5484;BME280;2764;48.794;8.326;2022-11-15T04:11:01;99454.16;;;8.67;100.00
5484;BME280;2764;48.794;8.326;2022-11-15T04:12:03;99452.34;;;8.69;100.00
5484;BME280;2764;48.794;8.326;2022-11-15T04:13:05;99453.91;;;8.73;100.00
5484;BME280;2764;48.794;8.326;2022-11-15T04:14:07;99457.44;;;8.72;100.00
5484;BME280;2764;48.794;8.326;2022-11-15T04:15:12;99459.09;;;8.73;100.00
5484;BME280;2764;48.794;8.326;2022-11-15T04:16:14;99465.19;;;8.73;100.00
5484;BME280;2764;48.794;8.326;2022-11-15T04:17:16;99455.59;;;8.74;100.00
5484;BME280;2764;48.794;8.326;2022-11-15T04:18:17;99451.25;;;8.74;100.00
5484;BME280;2764;48.794;8.326;2022-11-15T04:19:19;99454.75;;;8.73;100.00
5484;BME280;2764;48.794;8.326;2022-11-15T04:20:39;99467.00;;;8.71;100.00
5484;BME280;2764;48.794;8.326;2022-11-15T04:22:00;99456.66;;;8.70;100.00
5484;BME280;2764;48.794;8.326;2022-11-15T04:23:30;99459.09;;;8.73;100.00
5484;BME280;2764;48.794;8.326;2022-11-15T04:25:11;99455.72;;;8.71;100.00
5484;BME280;2764;48.794;8.326;2022-11-15T04:26:17;99451.56;;;8.67;100.00
5484;BME280;2764;48.794;8.326;2022-11-15T04:27:19;99450.47;;;8.72;100.00
5484;BME280;2764;48.794;8.326;2022-11-15T04:28:21;99450.56;;;8.69;100.00
5484;BME280;2764;48.794;8.326;2022-11-15T04:29:23;99447.91;;;8.71;100.00
5484;BME280;2764;48.794;8.326;2022-11-15T04:30:37;99447.06;;;8.70;100.00
5484;BME280;2764;48.794;8.326;2022-11-15T04:31:39;99438.41;;;8.70;100.00
5484;BME280;2764;48.794;8.326;2022-11-15T04:32:40;99444.47;;;8.70;100.00
5484;BME280;2764;48.794;8.326;2022-11-15T04:33:42;99445.19;;;8.74;100.00
5484;BME280;2764;48.794;8.326;2022-11-15T04:34:44;99438.22;;;8.74;100.00
5484;BME280;2764;48.794;8.326;2022-11-15T04:35:45;99428.81;;;8.70;100.00
5484;BME280;2764;48.794;8.326;2022-11-15T04:37:07;99436.31;;;8.78;100.00
5484;BME280;2764;48.794;8.326;2022-11-15T04:38:14;99440.66;;;8.77;100.00
5484;BME280;2764;48.794;8.326;2022-11-15T04:39:16;99436.31;;;8.78;100.00
5484;BME280;2764;48.794;8.326;2022-11-15T04:40:18;99434.63;;;8.77;100.00
5484;BME280;2764;48.794;8.326;2022-11-15T04:41:19;99439.84;;;8.77;100.00
5484;BME280;2764;48.794;8.326;2022-11-15T04:42:21;99438.13;;;8.76;100.00
5484;BME280;2764;48.794;8.326;2022-11-15T04:43:23;99438.22;;;8.74;100.00
5484;BME280;2764;48.794;8.326;2022-11-15T04:44:25;99436.47;;;8.75;100.00
5484;BME280;2764;48.794;8.326;2022-11-15T04:45:26;99443.47;;;8.73;100.00
5484;BME280;2764;48.794;8.326;2022-11-15T04:46:28;99433.97;;;8.72;100.00
5484;BME280;2764;48.794;8.326;2022-11-15T04:47:30;99434.03;;;8.70;100.00
5484;BME280;2764;48.794;8.326;2022-11-15T04:48:31;99430.63;;;8.68;100.00
5484;BME280;2764;48.794;8.326;2022-11-15T04:49:33;99432.34;;;8.69;100.00
5484;BME280;2764;48.794;8.326;2022-11-15T04:50:35;99424.69;;;8.65;100.00
5484;BME280;2764;48.794;8.326;2022-11-15T04:51:36;99431.75;;;8.63;100.00
5484;BME280;2764;48.794;8.326;2022-11-15T04:52:43;99426.63;;;8.60;100.00
5484;BME280;2764;48.794;8.326;2022-11-15T04:53:53;99424.97;;;8.59;100.00
5484;BME280;2764;48.794;8.326;2022-11-15T04:55:04;99423.97;;;8.61;100.00
5484;BME280;2764;48.794;8.326;2022-11-15T04:56:09;99431.66;;;8.64;100.00
5484;BME280;2764;48.794;8.326;2022-11-15T04:57:14;99431.66;;;8.64;100.00
5484;BME280;2764;48.794;8.326;2022-11-15T04:58:15;99432.44;;;8.66;100.00
5484;BME280;2764;48.794;8.326;2022-11-15T04:59:19;99431.47;;;8.69;100.00
5484;BME280;2764;48.794;8.326;2022-11-15T05:00:35;99429.72;;;8.69;100.00
5484;BME280;2764;48.794;8.326;2022-11-15T05:01:36;99430.44;;;8.73;100.00
5484;BME280;2764;48.794;8.326;2022-11-15T05:02:45;99427.03;;;8.71;100.00
5484;BME280;2764;48.794;8.326;2022-11-15T05:04:05;99415.13;;;8.65;100.00
5484;BME280;2764;48.794;8.326;2022-11-15T05:05:22;99421.91;;;8.69;100.00
5484;BME280;2764;48.794;8.326;2022-11-15T05:06:25;99422.88;;;8.67;100.00
5484;BME280;2764;48.794;8.326;2022-11-15T05:07:26;99426.53;;;8.63;100.00
5484;BME280;2764;48.794;8.326;2022-11-15T05:08:28;99426.63;;;8.60;100.00
5484;BME280;2764;48.794;8.326;2022-11-15T05:09:30;99426.72;;;8.58;100.00
5484;BME280;2764;48.794;8.326;2022-11-15T05:10:31;99422.47;;;8.56;100.00
5484;BME280;2764;48.794;8.326;2022-11-15T05:11:33;99424.16;;;8.57;100.00
5484;BME280;2764;48.794;8.326;2022-11-15T05:12:35;99419.97;;;8.53;100.00
5484;BME280;2764;48.794;8.326;2022-11-15T05:13:37;99433.09;;;8.51;100.00
5484;BME280;2764;48.794;8.326;2022-11-15T05:14:39;99419.00;;;8.55;100.00
5484;BME280;2764;48.794;8.326;2022-11-15T05:15:40;99433.94;;;8.52;100.00
5484;BME280;2764;48.794;8.326;2022-11-15T05:16:42;99421.25;;;8.64;100.00
5484;BME280;2764;48.794;8.326;2022-11-15T05:17:44;99439.41;;;8.66;100.00
5484;BME280;2764;48.794;8.326;2022-11-15T05:18:45;99418.28;;;8.52;100.00
5484;BME280;2764;48.794;8.326;2022-11-15T05:19:49;99375.72;;;8.31;100.00
5484;BME280;2764;48.794;8.326;2022-11-15T05:21:05;99383.09;;;8.41;100.00
5484;BME280;2764;48.794;8.326;2022-11-15T05:22:07;99424.81;;;8.62;100.00
5484;BME280;2764;48.794;8.326;2022-11-15T05:23:08;99411.59;;;8.66;100.00
5484;BME280;2764;48.794;8.326;2022-11-15T05:24:12;99449.53;;;8.73;100.00
5484;BME280;2764;48.794;8.326;2022-11-15T05:25:14;99380.00;;;8.32;100.00
5484;BME280;2764;48.794;8.326;2022-11-15T05:26:17;99400.56;;;8.60;100.00
5484;BME280;2764;48.794;8.326;2022-11-15T05:27:19;99434.88;;;8.71;100.00
5484;BME280;2764;48.794;8.326;2022-11-15T05:28:21;99369.06;;;8.22;100.00
5484;BME280;2764;48.794;8.326;2022-11-15T05:29:25;99440.22;;;8.68;100.00
5484;BME280;2764;48.794;8.326;2022-11-15T05:30:29;99419.88;;;8.56;100.00
5484;BME280;2764;48.794;8.326;2022-11-15T05:31:31;99369.13;;;8.21;100.00
5484;BME280;2764;48.794;8.326;2022-11-15T05:32:35;99432.47;;;8.44;100.00
5484;BME280;2764;48.794;8.326;2022-11-15T05:33:38;99390.59;;;8.27;100.00
5484;BME280;2764;48.794;8.326;2022-11-15T05:34:45;99369.06;;;8.22;100.00
5484;BME280;2764;48.794;8.326;2022-11-15T05:35:50;99409.03;;;8.44;100.00
5484;BME280;2764;48.794;8.326;2022-11-15T05:36:56;99435.69;;;8.51;100.00
5484;BME280;2764;48.794;8.326;2022-11-15T05:38:00;99401.47;;;8.15;100.00
5484;BME280;2764;48.794;8.326;2022-11-15T05:39:04;99371.63;;;8.02;100.00
5484;BME280;2764;48.794;8.326;2022-11-15T05:40:06;99402.88;;;8.02;100.00
5484;BME280;2764;48.794;8.326;2022-11-15T05:41:18;99441.56;;;8.34;100.00
5484;BME280;2764;48.794;8.326;2022-11-15T05:42:21;99357.31;;;7.91;100.00
5484;BME280;2764;48.794;8.326;2022-11-15T05:43:23;99451.19;;;8.32;100.00
5484;BME280;2764;48.794;8.326;2022-11-15T05:44:27;99386.13;;;7.86;100.00
5484;BME280;2764;48.794;8.326;2022-11-15T05:45:33;99414.91;;;8.28;100.00
5484;BME280;2764;48.794;8.326;2022-11-15T05:46:39;99368.47;;;7.94;100.00
5484;BME280;2764;48.794;8.326;2022-11-15T05:47:44;99410.38;;;8.10;100.00
5484;BME280;2764;48.794;8.326;2022-11-15T05:48:48;99420.44;;;8.19;100.00
5484;BME280;2764;48.794;8.326;2022-11-15T05:49:52;99402.41;;;8.14;100.00
5484;BME280;2764;48.794;8.326;2022-11-15T05:50:59;99333.22;;;7.41;100.00
5484;BME280;2764;48.794;8.326;2022-11-15T05:52:08;99295.09;;;7.40;100.00
5484;BME280;2764;48.794;8.326;2022-11-15T05:53:16;99375.97;;;7.80;100.00
5484;BME280;2764;48.794;8.326;2022-11-15T05:54:20;99390.56;;;7.84;100.00
5484;BME280;2764;48.794;8.326;2022-11-15T05:55:24;99382.56;;;7.89;100.00
5484;BME280;2764;48.794;8.326;2022-11-15T05:56:25;99395.13;;;8.01;100.00
5484;BME280;2764;48.794;8.326;2022-11-15T05:57:27;99382.31;;;7.73;100.00
5484;BME280;2764;48.794;8.326;2022-11-15T05:58:31;99431.94;;;8.13;100.00
5484;BME280;2764;48.794;8.326;2022-11-15T05:59:34;99362.44;;;7.70;100.00
5484;BME280;2764;48.794;8.326;2022-11-15T06:00:37;99386.19;;;7.85;100.00
5484;BME280;2764;48.794;8.326;2022-11-15T06:01:38;99367.22;;;7.81;100.00
5484;BME280;2764;48.794;8.326;2022-11-15T06:02:44;99434.69;;;8.10;100.00
5484;BME280;2764;48.794;8.326;2022-11-15T06:03:46;99428.28;;;8.17;100.00
5484;BME280;2764;48.794;8.326;2022-11-15T06:04:50;99423.69;;;8.02;100.00
5484;BME280;2764;48.794;8.326;2022-11-15T06:05:51;99400.06;;;8.07;100.00
5484;BME280;2764;48.794;8.326;2022-11-15T06:06:53;99317.47;;;7.67;100.00
5484;BME280;2764;48.794;8.326;2022-11-15T06:08:01;99412.44;;;8.23;100.00
5484;BME280;2764;48.794;8.326;2022-11-15T06:09:03;99399.72;;;7.94;100.00
5484;BME280;2764;48.794;8.326;2022-11-15T06:10:05;99418.44;;;8.25;100.00
5484;BME280;2764;48.794;8.326;2022-11-15T06:11:07;99366.09;;;7.88;100.00
5484;BME280;2764;48.794;8.326;2022-11-15T06:12:09;99406.22;;;8.27;100.00
5484;BME280;2764;48.794;8.326;2022-11-15T06:13:10;99363.09;;;7.99;100.00
5484;BME280;2764;48.794;8.326;2022-11-15T06:14:12;99352.53;;;8.02;100.00
5484;BME280;2764;48.794;8.326;2022-11-15T06:15:14;99407.31;;;8.43;100.00
5484;BME280;2764;48.794;8.326;2022-11-15T06:16:15;99375.19;;;8.21;100.00
5484;BME280;2764;48.794;8.326;2022-11-15T06:17:17;99375.81;;;8.28;100.00
5484;BME280;2764;48.794;8.326;2022-11-15T06:18:18;99399.38;;;8.46;100.00
5484;BME280;2764;48.794;8.326;2022-11-15T06:19:20;99384.19;;;8.13;100.00
5484;BME280;2764;48.794;8.326;2022-11-15T06:20:22;99409.59;;;8.31;100.00